Time;durP1;ratioP1;P1;durP2;ratioP2;P2;SDS_P1;SDS_P2;PMS_P1;PMS_P2;Temp;Humidity;BMP_temperature;BMP_pressure;BME280_temperature;BME280_humidity;BME280_pressure;Samples;Min_cycle;Max_cycle;Signal;HPM_P1;HPM_P2
2023/05/02 00:01:28;;;;;;;21.60;15.83;;;10.70;99.90;;;;;;5033037;28;20203;-63
2023/05/02 00:03:54;;;;;;;23.13;16.40;;;10.70;99.90;;;;;;5032837;28;20601;-63
2023/05/02 00:06:20;;;;;;;21.47;15.57;;;10.60;99.90;;;;;;5032052;28;20653;-63
2023/05/02 00:08:47;;;;;;;20.73;15.63;;;10.50;99.90;;;;;;5032872;28;20218;-63
2023/05/02 00:11:13;;;;;;;24.43;17.57;;;10.50;99.90;;;;;;5032244;28;20202;-63
2023/05/02 00:13:38;;;;;;;24.97;16.40;;;10.40;99.90;;;;;;5032632;28;20180;-63
2023/05/02 00:16:04;;;;;;;26.70;18.17;;;10.30;99.90;;;;;;5032419;28;20180;-63
2023/05/02 00:18:30;;;;;;;23.37;18.53;;;10.30;99.90;;;;;;5032970;28;20275;-63
2023/05/02 00:20:56;;;;;;;26.00;17.77;;;10.20;99.90;;;;;;5031883;28;20737;-63
2023/05/02 00:23:22;;;;;;;23.00;16.93;;;10.20;99.90;;;;;;5032732;28;20180;-63
2023/05/02 00:25:48;;;;;;;27.13;16.00;;;10.10;99.90;;;;;;5031885;28;20244;-63
2023/05/02 00:28:13;;;;;;;24.27;17.60;;;10.00;99.90;;;;;;5032561;28;20669;-63
2023/05/02 00:30:43;;;;;;;22.77;17.83;;;10.00;99.90;;;;;;5031553;28;20286;-63
2023/05/02 00:33:11;;;;;;;25.07;16.17;;;9.90;99.90;;;;;;5032596;28;20184;-63
2023/05/02 00:35:37;;;;;;;26.87;16.27;;;9.90;99.90;;;;;;5031931;28;20183;-63
2023/05/02 00:38:02;;;;;;;21.73;15.20;;;9.80;99.90;;;;;;5032411;28;20818;-63
2023/05/02 00:40:28;;;;;;;23.30;16.13;;;9.80;99.90;;;;;;5031593;28;20215;-63
2023/05/02 00:42:53;;;;;;;19.93;14.50;;;9.80;99.90;;;;;;5032133;28;20179;-63
2023/05/02 00:45:19;;;;;;;20.63;15.07;;;9.80;99.90;;;;;;5032325;28;20691;-63
2023/05/02 00:47:44;;;;;;;22.50;14.90;;;9.80;99.90;;;;;;5031753;28;20199;-63
2023/05/02 00:50:10;;;;;;;22.60;16.27;;;9.80;99.90;;;;;;5031873;28;20531;-63
2023/05/02 00:52:36;;;;;;;25.27;16.30;;;9.80;99.90;;;;;;5031989;28;20172;-63
2023/05/02 00:55:02;;;;;;;25.47;16.50;;;9.70;99.90;;;;;;5031809;28;20234;-63
2023/05/02 00:57:28;;;;;;;24.83;17.47;;;9.70;99.90;;;;;;5032239;28;20622;-63
2023/05/02 00:59:55;;;;;;;23.73;17.27;;;9.70;99.90;;;;;;5031178;28;20544;-63
2023/05/02 01:02:30;;;;;;;33.03;19.40;;;9.70;99.90;;;;;;5031868;28;20495;-63
2023/05/02 01:04:59;;;;;;;29.67;19.10;;;9.70;99.90;;;;;;5031513;28;20171;-63
2023/05/02 01:08:02;;;;;;;32.90;19.57;;;9.60;99.90;;;;;;5031887;28;20245;-63
2023/05/02 01:10:27;;;;;;;30.20;18.87;;;9.60;99.90;;;;;;5011819;28;20673;-63
2023/05/02 01:13:10;;;;;;;34.10;19.13;;;9.60;99.90;;;;;;5014657;28;20233;-63
2023/05/02 01:15:38;;;;;;;28.17;18.40;;;9.60;99.90;;;;;;5032150;28;20289;-63
2023/05/02 01:18:05;;;;;;;30.80;17.90;;;9.60;99.90;;;;;;5031211;28;20224;-62
2023/05/02 01:20:35;;;;;;;35.53;19.40;;;9.60;99.90;;;;;;5031343;28;20195;-63
2023/05/02 01:23:08;;;;;;;34.97;19.97;;;9.60;99.90;;;;;;5031331;28;20180;-63
2023/05/02 01:25:55;;;;;;;32.07;19.47;;;9.50;99.90;;;;;;5031658;28;20172;-62
2023/05/02 01:28:32;;;;;;;30.37;18.43;;;9.50;99.90;;;;;;5031283;28;20612;-63
2023/05/02 01:30:59;;;;;;;35.77;19.87;;;9.50;99.90;;;;;;5030748;28;20221;-63
2023/05/02 01:33:27;;;;;;;32.17;18.90;;;9.50;99.90;;;;;;5031524;28;20254;-63
2023/05/02 01:35:54;;;;;;;40.57;19.47;;;9.40;99.90;;;;;;5030823;28;20206;-63
2023/05/02 01:38:21;;;;;;;43.27;21.70;;;9.40;99.90;;;;;;5031414;28;20179;-64
2023/05/02 01:40:49;;;;;;;29.97;18.23;;;9.40;99.90;;;;;;5030697;28;20207;-63
2023/05/02 01:43:15;;;;;;;30.03;18.37;;;9.40;99.90;;;;;;5031406;28;20175;-63
2023/05/02 01:45:44;;;;;;;34.13;21.90;;;9.40;99.90;;;;;;5030857;28;20179;-63
2023/05/02 01:48:10;;;;;;;35.47;19.67;;;9.40;99.90;;;;;;5031282;28;20195;-63
2023/05/02 01:50:38;;;;;;;30.77;19.03;;;9.40;99.90;;;;;;5030623;28;20188;-63
2023/05/02 01:53:04;;;;;;;32.20;20.70;;;9.50;99.90;;;;;;5031430;28;20195;-63
2023/05/02 01:55:32;;;;;;;36.30;20.40;;;9.60;99.90;;;;;;5030971;28;20555;-62
2023/05/02 01:57:59;;;;;;;47.53;22.63;;;9.60;99.90;;;;;;5031001;28;20175;-63
2023/05/02 02:00:26;;;;;;;35.60;19.23;;;9.70;99.90;;;;;;5030873;28;20195;-63
2023/05/02 02:02:54;;;;;;;40.57;20.03;;;9.80;99.90;;;;;;5030840;28;20266;-63
2023/05/02 02:05:21;;;;;;;36.13;19.90;;;9.90;99.90;;;;;;5031137;28;20179;-63
2023/05/02 02:07:47;;;;;;;36.50;21.20;;;10.00;99.90;;;;;;5030600;28;20597;-63
2023/05/02 02:10:13;;;;;;;39.33;22.47;;;10.00;99.90;;;;;;5031333;28;20200;-65
2023/05/02 02:12:49;;;;;;;30.57;18.27;;;10.10;99.90;;;;;;5032093;28;20266;-67
2023/05/02 02:15:14;;;;;;;42.33;21.43;;;10.20;99.90;;;;;;5031399;28;20651;-62
2023/05/02 02:17:46;;;;;;;40.73;21.60;;;10.20;99.90;;;;;;5030615;28;20183;-62
2023/05/02 02:20:13;;;;;;;37.63;20.03;;;10.30;99.90;;;;;;5031050;28;20574;-62
2023/05/02 02:22:41;;;;;;;38.73;19.47;;;10.30;99.90;;;;;;5030923;28;20186;-64
2023/05/02 02:25:11;;;;;;;26.90;17.50;;;10.30;99.90;;;;;;5031074;28;20262;-62
2023/05/02 02:27:38;;;;;;;33.70;19.73;;;10.40;99.90;;;;;;5030636;28;20199;-62
2023/05/02 02:30:04;;;;;;;28.93;18.67;;;10.40;99.90;;;;;;5033838;28;20222;-62
2023/05/02 02:32:30;;;;;;;31.67;19.17;;;10.40;99.90;;;;;;5034445;28;20258;-62
2023/05/02 02:34:56;;;;;;;36.97;21.00;;;10.40;99.90;;;;;;5034625;28;20259;-62
2023/05/02 02:37:49;;;;;;;35.53;17.20;;;10.40;99.90;;;;;;5034337;28;20180;-62
2023/05/02 02:40:26;;;;;;;37.67;19.77;;;10.50;99.90;;;;;;5015228;28;20207;-62
2023/05/02 02:43:12;;;;;;;41.60;19.10;;;10.50;99.90;;;;;;5034276;28;20187;-62
2023/05/02 02:45:50;;;;;;;37.60;18.37;;;10.50;99.90;;;;;;5034474;28;20213;-61
2023/05/02 02:48:19;;;;;;;30.87;18.47;;;10.50;99.90;;;;;;5034132;28;20207;-62
2023/05/02 02:51:14;;;;;;;27.50;17.23;;;10.50;99.90;;;;;;5033842;28;20241;-62
2023/05/02 02:53:43;;;;;;;23.80;16.40;;;10.50;99.90;;;;;;4996319;28;20219;-62
2023/05/02 02:56:15;;;;;;;32.40;17.60;;;10.50;99.90;;;;;;5014500;28;20176;-62
2023/05/02 02:59:03;;;;;;;29.80;16.00;;;10.60;99.90;;;;;;5033751;28;20194;-62
2023/05/02 03:01:31;;;;;;;30.30;17.60;;;10.60;99.90;;;;;;5033738;28;20184;-62
2023/05/02 03:03:58;;;;;;;27.57;14.50;;;10.60;99.90;;;;;;5033801;28;20167;-62
2023/05/02 03:06:24;;;;;;;27.73;16.03;;;10.60;99.90;;;;;;5034016;28;20241;-62
2023/05/02 03:08:50;;;;;;;20.70;13.30;;;10.60;99.90;;;;;;5034262;28;20553;-62
2023/05/02 03:11:16;;;;;;;26.43;15.37;;;10.70;99.90;;;;;;5033560;28;20269;-62
2023/05/02 03:13:41;;;;;;;29.90;15.50;;;10.60;99.90;;;;;;5033868;28;20687;-62
2023/05/02 03:16:36;;;;;;;20.17;14.53;;;10.60;99.90;;;;;;5033598;28;20176;-62
2023/05/02 03:19:03;;;;;;;24.50;15.63;;;10.70;99.90;;;;;;5033926;28;20187;-61
2023/05/02 03:21:32;;;;;;;31.03;16.00;;;10.70;99.90;;;;;;5033596;28;20183;-62
2023/05/02 03:24:00;;;;;;;26.87;15.80;;;10.70;99.90;;;;;;5033435;28;20179;-60
2023/05/02 03:26:26;;;;;;;32.23;17.47;;;10.80;99.90;;;;;;5033384;28;20215;-62
2023/05/02 03:28:52;;;;;;;28.50;15.80;;;10.80;99.90;;;;;;5033328;28;20664;-62
2023/05/02 03:31:20;;;;;;;33.03;17.97;;;10.80;99.90;;;;;;5482428;22;20234;-87
2023/05/02 03:33:46;;;;;;;29.70;17.10;;;10.80;99.90;;;;;;5073372;28;20665;-87
2023/05/02 03:36:12;;;;;;;31.10;16.03;;;10.80;99.90;;;;;;5056250;28;20170;-87
2023/05/02 03:38:37;;;;;;;25.77;15.03;;;10.80;99.90;;;;;;5043867;28;20266;-87
2023/05/02 03:41:03;;;;;;;26.63;16.23;;;10.80;99.90;;;;;;5036028;28;20180;-86
2023/05/02 03:43:30;;;;;;;27.37;17.97;;;10.80;99.90;;;;;;5036897;28;20603;-87
2023/05/02 03:45:56;;;;;;;32.77;16.33;;;10.80;99.90;;;;;;5035442;28;20200;-87
2023/05/02 03:48:21;;;;;;;24.10;16.07;;;10.80;99.90;;;;;;5036915;28;20306;-87
2023/05/02 03:50:48;;;;;;;29.90;17.90;;;10.80;99.90;;;;;;5036555;28;20263;-87
2023/05/02 03:53:17;;;;;;;25.17;15.10;;;10.80;99.90;;;;;;5036386;28;20176;-86
2023/05/02 03:55:42;;;;;;;27.00;15.93;;;10.80;99.90;;;;;;5038087;28;20195;-87
2023/05/02 03:58:10;;;;;;;25.57;15.40;;;10.80;99.90;;;;;;5042286;28;20207;-87
2023/05/02 04:00:37;;;;;;;30.17;17.20;;;10.80;99.90;;;;;;5038164;28;20179;-87
2023/05/02 04:03:02;;;;;;;28.93;17.90;;;10.80;99.90;;;;;;5033739;28;20226;-87
2023/05/02 04:05:28;;;;;;;20.53;14.00;;;10.80;99.90;;;;;;5033596;28;20187;-87
2023/05/02 04:07:57;;;;;;;25.03;15.13;;;10.90;99.90;;;;;;5032546;28;20203;-87
2023/05/02 04:10:23;;;;;;;23.53;15.70;;;10.80;99.90;;;;;;5033527;28;20207;-87
2023/05/02 04:12:49;;;;;;;30.87;15.43;;;10.90;99.90;;;;;;5033436;28;20175;-87
2023/05/02 04:15:15;;;;;;;23.50;15.40;;;10.90;99.90;;;;;;5034922;28;20233;-88
2023/05/02 04:17:40;;;;;;;22.10;14.43;;;10.90;99.90;;;;;;5032904;28;20673;-87
2023/05/02 04:20:06;;;;;;;22.97;14.70;;;10.90;99.90;;;;;;5033100;28;20194;-87
2023/05/02 04:22:32;;;;;;;21.27;13.87;;;10.90;99.90;;;;;;5033120;28;20184;-88
2023/05/02 04:24:58;;;;;;;25.80;16.17;;;10.90;99.90;;;;;;5013369;28;20187;-87
2023/05/02 04:27:24;;;;;;;28.67;14.97;;;10.90;99.90;;;;;;5013066;28;20216;-87
2023/05/02 04:29:50;;;;;;;26.13;14.83;;;10.90;99.90;;;;;;5031257;28;20191;-87
2023/05/02 04:32:16;;;;;;;22.07;13.37;;;10.90;99.90;;;;;;5032508;28;20198;-88
2023/05/02 04:34:42;;;;;;;22.63;14.07;;;10.80;99.90;;;;;;5032746;28;20184;-87
2023/05/02 04:37:09;;;;;;;22.40;13.27;;;10.90;99.90;;;;;;5032363;28;20739;-86
2023/05/02 04:39:34;;;;;;;24.53;13.97;;;10.90;99.90;;;;;;5060641;22;20230;-66
2023/05/02 04:42:00;;;;;;;22.67;13.27;;;10.90;99.90;;;;;;5035392;28;20742;-66
2023/05/02 04:44:26;;;;;;;21.97;13.27;;;11.00;99.90;;;;;;5033883;28;20525;-70
2023/05/02 04:46:52;;;;;;;28.33;14.00;;;11.00;99.90;;;;;;5033637;28;20202;-71
2023/05/02 04:49:18;;;;;;;25.17;15.17;;;11.10;99.90;;;;;;5033709;28;20168;-69
2023/05/02 04:51:44;;;;;;;27.23;16.13;;;11.10;99.90;;;;;;5032603;28;20222;-69
2023/05/02 04:54:10;;;;;;;20.77;14.87;;;11.20;99.90;;;;;;5063584;22;20236;-67
2023/05/02 04:56:35;;;;;;;27.23;16.87;;;11.20;99.90;;;;;;5053591;28;20583;-67
2023/05/02 04:59:01;;;;;;;22.73;15.20;;;11.20;99.90;;;;;;5051211;28;20179;-62
2023/05/02 05:01:27;;;;;;;26.90;15.30;;;11.20;99.90;;;;;;5051507;28;20196;-62
2023/05/02 05:03:53;;;;;;;25.73;14.63;;;11.20;99.90;;;;;;5045528;28;20198;-62
2023/05/02 05:06:19;;;;;;;25.80;15.60;;;11.20;99.90;;;;;;5031986;28;20302;-63
2023/05/02 05:08:45;;;;;;;31.60;22.40;;;11.10;99.90;;;;;;5035345;28;20641;-62
2023/05/02 05:11:11;;;;;;;23.13;15.00;;;11.10;99.90;;;;;;5051496;28;20717;-63
2023/05/02 05:13:37;;;;;;;21.87;14.63;;;11.10;99.90;;;;;;5049222;28;20301;-62
2023/05/02 05:16:03;;;;;;;20.33;13.70;;;11.10;99.90;;;;;;5031613;28;20567;-63
2023/05/02 05:18:29;;;;;;;26.40;14.37;;;11.10;99.90;;;;;;5031754;28;20696;-62
2023/05/02 05:20:55;;;;;;;17.27;14.20;;;11.10;99.90;;;;;;5051260;28;20249;-62
2023/05/02 05:23:20;;;;;;;31.17;14.03;;;11.10;99.90;;;;;;5051518;28;20282;-62
2023/05/02 05:25:46;;;;;;;19.03;13.30;;;11.10;99.90;;;;;;5032603;28;20192;-62
2023/05/02 05:28:12;;;;;;;18.40;12.70;;;11.10;99.90;;;;;;5035884;28;20542;-63
2023/05/02 05:30:37;;;;;;;18.43;13.13;;;11.20;99.90;;;;;;5050864;28;20178;-63
2023/05/02 05:33:03;;;;;;;19.20;12.43;;;11.20;99.90;;;;;;5048202;28;21564;-62
2023/05/02 05:35:30;;;;;;;22.70;12.60;;;11.20;99.90;;;;;;5031456;28;20175;-62
2023/05/02 05:37:56;;;;;;;15.87;12.33;;;11.20;99.90;;;;;;5032205;28;20195;-62
2023/05/02 05:40:21;;;;;;;19.10;11.43;;;11.20;99.90;;;;;;5050917;28;20207;-62
2023/05/02 05:42:47;;;;;;;20.97;11.77;;;11.20;99.90;;;;;;5032843;28;20199;-62
2023/05/02 05:45:13;;;;;;;22.07;12.30;;;11.10;99.90;;;;;;5031290;28;20179;-62
2023/05/02 05:47:39;;;;;;;22.97;12.53;;;11.10;99.90;;;;;;5041432;28;20210;-62
2023/05/02 05:50:06;;;;;;;22.40;14.90;;;11.10;99.90;;;;;;5050638;28;20696;-62
2023/05/02 05:52:31;;;;;;;19.20;12.80;;;11.00;99.90;;;;;;5036362;28;20214;-62
2023/05/02 05:54:57;;;;;;;18.83;12.07;;;11.10;99.90;;;;;;5031456;28;20250;-62
2023/05/02 05:57:22;;;;;;;21.70;12.17;;;11.10;99.90;;;;;;5043484;28;20600;-62
2023/05/02 05:59:48;;;;;;;13.37;10.83;;;11.10;99.90;;;;;;5036461;28;20179;-62
2023/05/02 06:02:15;;;;;;;18.37;12.53;;;11.10;99.90;;;;;;5030380;28;20183;-64
2023/05/02 06:04:40;;;;;;;22.57;12.63;;;11.20;99.90;;;;;;5033634;28;20188;-62
2023/05/02 06:07:06;;;;;;;21.50;13.40;;;11.20;99.90;;;;;;5043781;28;20206;-62
2023/05/02 06:09:32;;;;;;;17.53;12.00;;;11.20;99.90;;;;;;5054554;28;20163;-62
2023/05/02 06:11:57;;;;;;;19.90;13.07;;;11.30;99.90;;;;;;5052934;28;20562;-62
2023/05/02 06:14:23;;;;;;;16.80;12.43;;;11.30;99.90;;;;;;5054979;28;20201;-62
2023/05/02 06:16:49;;;;;;;20.27;14.17;;;11.20;99.90;;;;;;5046828;28;20175;-62
2023/05/02 06:19:14;;;;;;;23.13;12.77;;;11.20;99.90;;;;;;5045145;28;20175;-62
2023/05/02 06:21:40;;;;;;;19.90;12.13;;;11.20;99.90;;;;;;5048985;28;20178;-62
2023/05/02 06:24:06;;;;;;;18.10;12.70;;;11.20;99.90;;;;;;5034409;28;20202;-62
2023/05/02 06:26:31;;;;;;;19.03;12.83;;;11.30;99.90;;;;;;5038384;28;20617;-62
2023/05/02 06:28:57;;;;;;;19.30;12.60;;;11.30;99.90;;;;;;5054254;28;20186;-62
2023/05/02 06:31:23;;;;;;;15.77;10.90;;;11.30;99.90;;;;;;5051957;28;20171;-62
2023/05/02 06:33:49;;;;;;;23.07;11.47;;;11.40;99.90;;;;;;5034355;28;20195;-62
2023/05/02 06:36:14;;;;;;;15.57;12.20;;;11.50;99.90;;;;;;5033131;28;20270;-62
2023/05/02 06:38:40;;;;;;;16.37;11.10;;;11.60;99.90;;;;;;5054395;28;20574;-62
2023/05/02 06:41:05;;;;;;;15.23;11.67;;;11.60;99.90;;;;;;5054150;28;20564;-61
2023/05/02 06:43:32;;;;;;;13.50;10.63;;;11.60;99.90;;;;;;5035751;28;20203;-62
2023/05/02 06:45:59;;;;;;;18.33;11.63;;;11.60;99.90;;;;;;5035670;28;20167;-62
2023/05/02 06:48:25;;;;;;;15.73;10.73;;;11.60;99.90;;;;;;5053785;28;20210;-62
2023/05/02 06:50:54;;;;;;;14.97;10.40;;;11.60;99.90;;;;;;5053289;28;20257;-62
2023/05/02 06:53:20;;;;;;;13.17;9.67;;;11.50;99.90;;;;;;5014559;28;20711;-62
2023/05/02 06:55:47;;;;;;;12.40;8.40;;;11.50;99.90;;;;;;5014143;28;20172;-62
2023/05/02 06:58:13;;;;;;;12.13;9.47;;;11.40;99.90;;;;;;5052206;28;20446;-62
2023/05/02 07:00:38;;;;;;;10.77;8.10;;;11.20;99.90;;;;;;5053746;28;20181;-62
2023/05/02 07:03:04;;;;;;;13.37;7.93;;;11.20;99.90;;;;;;5036759;28;20273;-61
2023/05/02 07:05:30;;;;;;;7.73;6.87;;;11.10;99.90;;;;;;5034209;28;20168;-60
2023/05/02 07:07:55;;;;;;;7.57;6.53;;;11.00;99.90;;;;;;5048850;28;20238;-61
2023/05/02 07:10:21;;;;;;;10.57;7.90;;;10.90;99.90;;;;;;5053318;28;20633;-61
2023/05/02 07:12:47;;;;;;;8.63;7.97;;;10.90;99.90;;;;;;5040065;28;20528;-61
2023/05/02 07:15:12;;;;;;;9.03;7.57;;;11.00;99.90;;;;;;5032737;28;20633;-62
2023/05/02 07:17:39;;;;;;;8.63;7.87;;;11.00;99.90;;;;;;5044937;28;20205;-62
2023/05/02 07:20:06;;;;;;;8.60;7.80;;;11.10;99.90;;;;;;5053267;28;20171;-62
2023/05/02 07:22:31;;;;;;;7.83;7.13;;;11.20;99.90;;;;;;5043578;28;20408;-61
2023/05/02 07:24:59;;;;;;;8.00;7.30;;;11.30;99.90;;;;;;5031293;28;20480;-60
2023/05/02 07:27:25;;;;;;;8.87;7.50;;;11.40;99.90;;;;;;5033831;28;20210;-62
2023/05/02 07:29:51;;;;;;;7.23;6.63;;;11.50;99.90;;;;;;5032912;28;20176;-61
2023/05/02 07:32:16;;;;;;;9.00;8.20;;;11.60;99.90;;;;;;5043501;28;20181;-62
2023/05/02 07:34:42;;;;;;;9.27;7.37;;;11.70;99.90;;;;;;5053426;28;20163;-62
2023/05/02 07:37:08;;;;;;;7.67;6.90;;;11.90;99.90;;;;;;5044462;28;20194;-61
2023/05/02 07:39:34;;;;;;;10.10;8.23;;;12.00;99.90;;;;;;5037590;28;20179;-62
2023/05/02 07:42:00;;;;;;;16.43;7.57;;;12.10;99.90;;;;;;5033570;28;20184;-62
2023/05/02 07:44:25;;;;;;;8.07;7.47;;;12.30;99.90;;;;;;5036337;28;20271;-62
2023/05/02 07:46:52;;;;;;;7.70;6.90;;;12.40;99.90;;;;;;5050823;28;20622;-62
2023/05/02 07:49:18;;;;;;;8.13;6.57;;;12.60;99.90;;;;;;5032847;28;20254;-62
2023/05/02 07:51:44;;;;;;;6.47;5.97;;;12.60;99.90;;;;;;5033311;28;20628;-63
2023/05/02 07:54:20;;;;;;;8.77;7.00;;;12.80;99.90;;;;;;5052096;28;20264;-62
2023/05/02 07:56:46;;;;;;;7.07;6.47;;;13.00;99.90;;;;;;5052438;28;20244;-62
2023/05/02 07:59:12;;;;;;;8.37;6.50;;;13.10;99.90;;;;;;5013102;28;20196;-62
2023/05/02 08:01:39;;;;;;;8.00;6.17;;;13.10;99.90;;;;;;5038222;28;20190;-62
2023/05/02 08:04:04;;;;;;;6.43;5.90;;;13.30;99.90;;;;;;5052859;28;20189;-62
2023/05/02 08:06:31;;;;;;;6.17;5.73;;;13.40;99.90;;;;;;5051102;28;20691;-62
2023/05/02 08:08:57;;;;;;;6.90;6.30;;;13.50;99.90;;;;;;5052402;28;20575;-63
2023/05/02 08:11:24;;;;;;;8.43;7.93;;;13.80;99.90;;;;;;5034522;28;20183;-62
2023/05/02 08:13:51;;;;;;;8.47;7.63;;;13.90;99.90;;;;;;5036047;28;20203;-62
2023/05/02 08:16:17;;;;;;;6.37;5.87;;;13.80;99.90;;;;;;5031301;28;20179;-62
2023/05/02 08:18:43;;;;;;;5.17;4.67;;;13.80;99.90;;;;;;5040670;28;20233;-62
2023/05/02 08:21:09;;;;;;;6.10;5.50;;;13.60;99.90;;;;;;5052295;28;20751;-62
2023/05/02 08:23:36;;;;;;;5.90;5.33;;;13.50;99.90;;;;;;5045358;28;20604;-62
2023/05/02 08:26:02;;;;;;;5.83;5.53;;;13.30;99.90;;;;;;5032029;28;20179;-62
2023/05/02 08:28:28;;;;;;;5.60;5.10;;;13.20;99.90;;;;;;5033266;28;20636;-62
2023/05/02 08:30:53;;;;;;;5.33;5.00;;;13.40;99.90;;;;;;5014364;28;20183;-62
2023/05/02 08:33:19;;;;;;;4.97;4.77;;;13.50;99.90;;;;;;5043465;28;20195;-62
2023/05/02 08:35:44;;;;;;;8.30;5.57;;;13.50;99.90;;;;;;5040214;28;20667;-62
2023/05/02 08:38:10;;;;;;;5.47;4.97;;;13.70;99.90;;;;;;5031890;28;20230;-62
2023/05/02 08:40:37;;;;;;;4.83;4.53;;;13.90;99.90;;;;;;5031907;28;20234;-62
2023/05/02 08:43:04;;;;;;;4.50;4.30;;;14.20;99.90;;;;;;5032066;28;20203;-62
2023/05/02 08:45:40;;;;;;;8.33;4.93;;;14.50;99.90;;;;;;5032409;28;20598;-63
2023/05/02 08:48:09;;;;;;;5.90;4.60;;;14.30;99.90;;;;;;5031172;28;20219;-62
2023/05/02 08:50:40;;;;;;;6.23;4.70;;;13.80;99.90;;;;;;5031563;28;20562;-62
2023/05/02 08:53:07;;;;;;;4.73;4.43;;;13.70;99.90;;;;;;5031787;28;20234;-62
2023/05/02 08:55:35;;;;;;;4.97;4.47;;;13.60;99.90;;;;;;5029610;28;20176;-62
2023/05/02 08:58:03;;;;;;;4.47;4.27;;;13.50;99.90;;;;;;5032033;28;20217;-62
2023/05/02 09:00:29;;;;;;;5.00;4.60;;;13.30;99.90;;;;;;5031638;28;20171;-62
2023/05/02 09:03:00;;;;;;;5.10;4.67;;;13.00;99.90;;;;;;5031898;28;20302;-62
2023/05/02 09:05:26;;;;;;;4.37;4.17;;;12.80;99.90;;;;;;5031698;28;20175;-62
2023/05/02 09:07:52;;;;;;;5.07;4.53;;;12.60;99.90;;;;;;5031558;28;20253;-62
2023/05/02 09:10:17;;;;;;;5.40;5.10;;;12.70;99.90;;;;;;5031138;28;20167;-62
2023/05/02 09:12:43;;;;;;;7.00;6.40;;;12.70;99.90;;;;;;5031490;28;20192;-62
2023/05/02 09:15:10;;;;;;;5.63;5.23;;;12.80;99.90;;;;;;5031667;28;20176;-62
2023/05/02 09:17:43;;;;;;;5.93;5.53;;;12.70;99.90;;;;;;5031646;28;20194;-63
2023/05/02 09:20:10;;;;;;;6.17;5.67;;;12.60;99.90;;;;;;5031248;28;20175;-62
2023/05/02 09:22:37;;;;;;;6.73;6.13;;;12.60;99.90;;;;;;5031401;28;20191;-62
2023/05/02 09:25:05;;;;;;;7.47;6.87;;;12.70;99.90;;;;;;5031388;28;20259;-62
2023/05/02 09:27:51;;;;;;;8.30;7.13;;;12.80;99.90;;;;;;5029373;28;20258;-62
2023/05/02 09:30:19;;;;;;;6.27;5.27;;;13.00;99.90;;;;;;5030904;28;20587;-62
2023/05/02 09:32:45;;;;;;;9.43;5.67;;;13.00;99.90;;;;;;5031499;28;20535;-62
2023/05/02 09:35:11;;;;;;;5.30;4.80;;;13.00;99.90;;;;;;5031548;28;20377;-62
2023/05/02 09:37:36;;;;;;;6.53;5.43;;;13.00;99.90;;;;;;5031003;28;20172;-62
2023/05/02 09:40:08;;;;;;;7.57;5.67;;;13.20;99.90;;;;;;5035299;28;20186;-62
2023/05/02 09:42:35;;;;;;;6.23;5.80;;;13.40;99.90;;;;;;5037057;28;20786;-62
2023/05/02 09:45:00;;;;;;;9.33;6.10;;;13.70;99.90;;;;;;5031085;28;20178;-62
2023/05/02 09:47:26;;;;;;;6.37;5.87;;;13.90;99.90;;;;;;5031096;28;20726;-62
2023/05/02 09:49:51;;;;;;;9.60;7.27;;;13.90;99.90;;;;;;5030646;28;20190;-62
2023/05/02 09:52:22;;;;;;;6.63;5.93;;;14.00;99.90;;;;;;5030139;28;20310;-63
2023/05/02 09:54:52;;;;;;;6.67;6.07;;;14.00;99.90;;;;;;5030110;28;20175;-62
2023/05/02 09:57:17;;;;;;;7.47;5.63;;;14.00;99.90;;;;;;5043221;28;20205;-62
2023/05/02 09:59:56;;;;;;;9.47;6.47;;;14.00;99.90;;;;;;5050329;28;20175;-62
2023/05/02 10:02:24;;;;;;;5.80;5.30;;;14.10;99.90;;;;;;5046431;28;20202;-62
2023/05/02 10:04:52;;;;;;;5.40;5.07;;;14.10;99.90;;;;;;5050664;28;20641;-62
2023/05/02 10:07:19;;;;;;;5.87;5.30;;;14.00;99.90;;;;;;5038740;28;20293;-63
2023/05/02 10:09:48;;;;;;;6.00;5.37;;;14.00;99.90;;;;;;5030102;28;20182;-62
2023/05/02 10:12:15;;;;;;;6.60;5.43;;;14.00;99.90;;;;;;5040505;28;20648;-62
2023/05/02 10:14:49;;;;;;;6.40;5.80;;;14.10;99.90;;;;;;5050726;28;20175;-62
2023/05/02 10:17:40;;;;;;;5.80;5.40;;;14.40;99.90;;;;;;5041258;28;20183;-62
2023/05/02 10:20:07;;;;;;;6.10;5.50;;;14.50;99.90;;;;;;5030519;28;20222;-62
2023/05/02 10:22:34;;;;;;;6.13;5.57;;;14.50;99.90;;;;;;5042524;28;20199;-62
2023/05/02 10:25:02;;;;;;;7.47;5.90;;;14.50;99.90;;;;;;5050774;28;20270;-62
2023/05/02 10:27:29;;;;;;;6.10;5.67;;;14.70;99.90;;;;;;5040034;28;20265;-62
2023/05/02 10:29:57;;;;;;;11.23;6.27;;;15.00;99.90;;;;;;5037140;28;20182;-62
2023/05/02 10:32:26;;;;;;;9.37;6.27;;;15.20;99.90;;;;;;5050733;28;20191;-63
2023/05/02 10:34:55;;;;;;;6.27;5.57;;;15.20;99.90;;;;;;5044280;28;20167;-63
2023/05/02 10:37:23;;;;;;;5.90;5.40;;;15.00;99.90;;;;;;5030843;28;20633;-62
2023/05/02 10:39:49;;;;;;;6.03;5.47;;;14.80;99.90;;;;;;5031128;28;20529;-63
2023/05/02 10:42:17;;;;;;;6.13;5.20;;;14.80;99.90;;;;;;5030483;28;20230;-62
2023/05/02 10:44:43;;;;;;;5.37;4.90;;;14.70;99.90;;;;;;5041261;28;20202;-63
2023/05/02 10:47:22;;;;;;;5.70;5.20;;;14.80;99.90;;;;;;5050461;28;20194;-63
2023/05/02 10:49:55;;;;;;;5.83;5.33;;;14.60;99.90;;;;;;5040135;28;20167;-62
2023/05/02 10:52:36;;;;;;;5.10;4.60;;;14.60;99.90;;;;;;5033919;28;20183;-62
2023/05/02 10:57:30;;;;;;;5.27;4.87;;;14.70;99.90;;;;;;5032867;28;20227;-64
2023/05/02 11:00:21;;;;;;;5.53;5.10;;;14.80;99.90;;;;;;5033180;28;20610;-64
2023/05/02 11:02:48;;;;;;;5.67;5.17;;;14.90;99.90;;;;;;5034279;28;20167;-64
2023/05/02 11:05:13;;;;;;;5.47;4.93;;;14.70;99.90;;;;;;5012530;28;20204;-65
2023/05/02 11:07:39;;;;;;;7.47;5.20;;;14.70;99.90;;;;;;5014159;28;20299;-64
2023/05/02 11:10:17;;;;;;;7.47;4.73;;;14.70;99.90;;;;;;5013245;28;20181;-65
2023/05/02 11:12:50;;;;;;;4.97;4.57;;;14.80;99.90;;;;;;5014237;28;20176;-64
2023/05/02 11:15:26;;;;;;;5.10;4.60;;;15.00;99.90;;;;;;4996280;28;20200;-64
2023/05/02 11:18:07;;;;;;;5.67;4.67;;;15.30;99.90;;;;;;5013913;28;20178;-64
2023/05/02 11:20:46;;;;;;;5.87;5.37;;;15.40;99.90;;;;;;5012688;28;20540;-64
2023/05/02 11:23:20;;;;;;;7.50;4.80;;;15.10;99.90;;;;;;5013986;28;20178;-64
2023/05/02 11:25:55;;;;;;;5.00;4.70;;;15.10;99.90;;;;;;5013400;28;20233;-64
2023/05/02 11:28:36;;;;;;;6.57;5.43;;;15.10;99.90;;;;;;5013557;28;20254;-65
2023/05/02 11:31:29;;;;;;;6.13;4.60;;;15.20;99.90;;;;;;5013303;28;20684;-62
2023/05/02 11:33:59;;;;;;;4.70;4.17;;;15.40;99.90;;;;;;4985462;28;20210;-64
2023/05/02 11:36:34;;;;;;;5.40;4.90;;;15.60;99.90;;;;;;5013569;28;20180;-64
2023/05/02 11:39:06;;;;;;;5.60;4.33;;;15.80;99.90;;;;;;5013276;28;20645;-64
2023/05/02 11:41:41;;;;;;;5.20;4.80;;;15.80;99.90;;;;;;5013574;28;20176;-65
2023/05/02 11:44:07;;;;;;;5.30;4.70;;;15.90;99.90;;;;;;5013182;28;20199;-64
2023/05/02 11:46:36;;;;;;;9.20;4.77;;;16.10;99.90;;;;;;5013629;28;20165;-64
2023/05/02 11:49:02;;;;;;;7.30;4.60;;;16.30;99.90;;;;;;5013375;28;20227;-64
2023/05/02 11:51:27;;;;;;;5.27;4.70;;;16.00;99.90;;;;;;5013338;28;20165;-64
2023/05/02 11:53:53;;;;;;;5.40;4.90;;;15.90;99.90;;;;;;5013188;28;20198;-64
2023/05/02 11:56:26;;;;;;;6.10;4.53;;;15.80;99.90;;;;;;5013305;28;20243;-64
2023/05/02 11:59:02;;;;;;;6.07;4.63;;;15.80;99.90;;;;;;5013171;28;20215;-64
2023/05/02 12:01:27;;;;;;;5.97;4.33;;;15.90;99.90;;;;;;5012387;28;20253;-64
2023/05/02 12:04:04;;;;;;;5.77;5.20;;;16.30;99.90;;;;;;5013110;28;20196;-64
2023/05/02 12:06:30;;;;;;;4.57;4.20;;;16.30;99.90;;;;;;5012926;28;20206;-64
2023/05/02 12:09:09;;;;;;;8.87;4.63;;;16.30;99.90;;;;;;5013037;28;20287;-64
2023/05/02 12:11:37;;;;;;;4.90;4.50;;;16.20;99.90;;;;;;5013487;28;20649;-64
2023/05/02 12:14:04;;;;;;;5.20;4.60;;;16.50;99.90;;;;;;5013157;28;20192;-64
2023/05/02 12:16:30;;;;;;;4.00;3.80;;;16.60;99.90;;;;;;5012780;28;20630;-64
2023/05/02 12:18:58;;;;;;;4.60;4.30;;;16.80;99.90;;;;;;5012718;28;20234;-64
2023/05/02 12:21:25;;;;;;;5.13;4.07;;;16.70;99.90;;;;;;5012686;28;20242;-64
2023/05/02 12:23:51;;;;;;;5.90;4.27;;;16.70;99.90;;;;;;5012781;28;20572;-64
2023/05/02 12:26:29;;;;;;;7.40;5.03;;;16.60;99.90;;;;;;5012808;28;20176;-64
2023/05/02 12:28:55;;;;;;;5.10;4.70;;;16.50;99.90;;;;;;5012720;28;20214;-64
2023/05/02 12:31:22;;;;;;;5.90;4.23;;;16.70;99.90;;;;;;5012634;28;20203;-63
2023/05/02 12:33:49;;;;;;;6.83;4.60;;;16.90;99.90;;;;;;5012343;28;20282;-63
2023/05/02 12:36:16;;;;;;;4.80;4.47;;;17.00;99.90;;;;;;5012739;28;20164;-64
2023/05/02 12:38:49;;;;;;;8.33;4.00;;;17.10;99.90;;;;;;5012516;28;20587;-64
2023/05/02 12:41:15;;;;;;;7.40;4.33;;;17.00;99.90;;;;;;5012528;28;20326;-64
2023/05/02 12:43:48;;;;;;;6.50;4.20;;;16.90;99.90;;;;;;5012336;28;20291;-64
2023/05/02 12:46:14;;;;;;;6.30;4.13;;;16.60;99.90;;;;;;5012603;28;20671;-63